Time;durP1;ratioP1;P1;durP2;ratioP2;P2;SDS_P1;SDS_P2;PMS_P1;PMS_P2;Temp;Humidity;BMP_temperature;BMP_pressure;BME280_temperature;BME280_humidity;BME280_pressure;Samples;Min_cycle;Max_cycle;Signal;HPM_P1;HPM_P2
2021/10/30 00:01:43;;;;;;;1.00;0.73;;;;;;;-145.06;100.00;60892.56;4873267;28;20367;-88
2021/10/30 00:04:22;;;;;;;0.93;0.82;;;;;;;-145.06;100.00;60892.56;4872593;28;20024;-88
2021/10/30 00:07:01;;;;;;;1.43;0.97;;;;;;;-145.06;100.00;60892.56;4865534;28;20032;-89
2021/10/30 00:09:41;;;;;;;0.90;0.73;;;;;;;-145.06;100.00;60892.56;4874844;28;20746;-88
2021/10/30 00:12:20;;;;;;;1.38;0.88;;;;;;;-145.06;100.00;60892.56;4879996;28;20033;-88
2021/10/30 00:15:00;;;;;;;1.05;0.68;;;;;;;15.88;100.00;60892.56;4885386;28;20056;-89
2021/10/30 00:17:39;;;;;;;1.65;0.82;;;;;;;-145.06;100.00;60892.56;4864825;28;20356;-88
2021/10/30 00:20:18;;;;;;;1.00;0.90;;;;;;;-145.06;100.00;60892.56;4860719;28;20020;-88
2021/10/30 00:22:57;;;;;;;1.17;0.80;;;;;;;-145.06;100.00;60892.56;4867146;28;20029;-89
2021/10/30 00:25:36;;;;;;;0.70;0.70;;;;;;;-145.06;100.00;60892.56;4864398;28;20108;-89
2021/10/30 00:28:15;;;;;;;1.30;0.90;;;;;;;-145.06;100.00;60892.56;4873837;28;20475;-89
2021/10/30 00:30:54;;;;;;;1.00;0.90;;;;;;;-145.06;100.00;60892.56;4887211;28;20833;-89
2021/10/30 00:33:33;;;;;;;1.73;0.87;;;;;;;-145.06;100.00;60892.56;4873730;28;20287;-89
2021/10/30 00:36:12;;;;;;;0.90;0.80;;;;;;;-145.06;100.00;60892.56;4869087;28;20033;-88
2021/10/30 00:38:51;;;;;;;1.03;0.77;;;;;;;-145.06;100.00;60892.56;4869492;28;20466;-88
2021/10/30 00:41:30;;;;;;;4.18;0.90;;;;;;;-145.06;100.00;60892.56;4868519;28;20592;-88
2021/10/30 00:44:10;;;;;;;1.00;0.70;;;;;;;-145.06;100.00;60892.56;4884852;28;20029;-88
2021/10/30 00:46:51;;;;;;;0.90;0.70;;;;;;;-145.06;100.00;60892.56;4874505;28;20033;-88
2021/10/30 00:49:32;;;;;;;1.38;1.00;;;;;;;-145.06;100.00;60892.56;4887401;28;20025;-89
2021/10/30 00:52:14;;;;;;;0.90;0.70;;;;;;;-145.06;100.00;60892.56;4868553;28;20514;-88
2021/10/30 00:54:57;;;;;;;1.75;0.95;;;;;;;-145.06;100.00;60892.56;4875273;28;20041;-88
2021/10/30 00:57:40;;;;;;;1.15;1.00;;;;;;;-145.06;100.00;60892.56;4873171;28;20059;-88
2021/10/30 01:00:19;;;;;;;1.35;0.88;;;;;;;-145.06;100.00;60892.56;4858129;28;20033;-89
2021/10/30 01:02:58;;;;;;;1.20;1.00;;;;;;;-145.06;100.00;60892.56;4858562;28;20033;-88
2021/10/30 01:05:37;;;;;;;2.77;1.00;;;;;;;-145.06;100.00;60892.56;4878148;28;20749;-88
2021/10/30 01:08:18;;;;;;;2.17;1.20;;;;;;;-145.06;100.00;60892.56;4865207;28;20029;-88
2021/10/30 01:10:58;;;;;;;1.77;1.00;;;;;;;-145.06;100.00;60892.56;4889869;28;20119;-88
2021/10/30 01:13:40;;;;;;;1.40;0.90;;;;;;;-145.06;100.00;60892.56;4884870;28;20359;-89
2021/10/30 01:16:21;;;;;;;1.10;0.95;;;;;;;-145.06;100.00;60892.56;4858178;28;20462;-88
2021/10/30 01:19:02;;;;;;;1.13;0.80;;;;;;;-145.06;100.00;60892.56;4858589;28;20112;-87
2021/10/30 01:21:42;;;;;;;1.15;0.82;;;;;;;-145.06;100.00;60892.56;4857808;28;20029;-88
2021/10/30 01:24:21;;;;;;;1.20;0.82;;;;;;;-145.06;100.00;60892.56;4858041;28;20368;-88
2021/10/30 01:27:01;;;;;;;1.48;0.90;;;;;;;-145.06;100.00;60892.56;4866126;28;20439;-88
2021/10/30 01:29:40;;;;;;;1.20;0.85;;;;;;;-145.06;100.00;60892.56;4865847;28;20032;-88
2021/10/30 01:32:20;;;;;;;1.02;0.73;;;;;;;-145.06;100.00;60892.56;4876023;28;20033;-87
2021/10/30 01:34:59;;;;;;;1.20;0.90;;;;;;;-145.06;100.00;60892.56;4868709;28;20028;-88
2021/10/30 01:37:37;;;;;;;0.90;0.60;;;;;;;14.88;100.00;60892.56;4891137;28;20017;-88
2021/10/30 01:40:17;;;;;;;0.73;0.70;;;;;;;-145.06;100.00;60892.56;4869888;28;20681;-88
2021/10/30 01:43:01;;;;;;;1.48;0.90;;;;;;;-145.06;100.00;60892.56;4876381;28;20279;-89
2021/10/30 01:45:42;;;;;;;0.90;0.73;;;;;;;-145.06;100.00;60892.56;4876337;28;20056;-88
2021/10/30 01:48:29;;;;;;;0.95;0.70;;;;;;;-145.06;100.00;60892.56;4874013;28;20028;-89
2021/10/30 01:51:08;;;;;;;0.98;0.77;;;;;;;-145.06;100.00;60892.56;4876618;28;20033;-89
2021/10/30 01:53:47;;;;;;;1.07;0.77;;;;;;;-145.06;100.00;60892.56;4887954;28;20028;-88
2021/10/30 01:56:28;;;;;;;1.50;0.67;;;;;;;-145.06;100.00;60892.56;4878282;28;20737;-89
2021/10/30 01:59:07;;;;;;;1.10;0.80;;;;;;;-145.06;100.00;60892.56;4888629;28;20276;-88
2021/10/30 02:01:46;;;;;;;1.25;0.70;;;;;;;-145.06;100.00;60892.56;4883929;28;20458;-87
2021/10/30 02:04:25;;;;;;;1.00;0.60;;;;;;;-145.06;100.00;60892.56;4875792;28;20028;-88
2021/10/30 02:07:03;;;;;;;1.52;0.70;;;;;;;15.88;100.00;60892.56;4876138;28;20280;-88
2021/10/30 02:09:43;;;;;;;1.17;0.82;;;;;;;-145.06;100.00;60892.56;4873693;28;20033;-88
2021/10/30 02:12:22;;;;;;;0.63;0.57;;;;;;;-145.06;100.00;60892.56;4875805;28;20028;-87
2021/10/30 02:15:01;;;;;;;0.82;0.70;;;;;;;187.52;100.00;60892.56;4873355;28;20029;-88
2021/10/30 02:17:40;;;;;;;0.75;0.60;;;;;;;187.52;100.00;60892.56;4872795;28;20036;-88
2021/10/30 02:20:20;;;;;;;1.60;0.73;;;;;;;-145.06;100.00;60892.56;4868452;28;20025;-88
2021/10/30 02:23:00;;;;;;;1.27;0.63;;;;;;;-145.06;100.00;60892.56;4856647;28;20344;-88
2021/10/30 02:25:39;;;;;;;0.77;0.68;;;;;;;-145.06;100.00;60892.56;4856798;28;20420;-89
2021/10/30 02:28:18;;;;;;;0.97;0.80;;;;;;;-145.06;100.00;60892.56;4862876;28;20459;-87
2021/10/30 02:30:57;;;;;;;1.10;0.93;;;;;;;-145.06;100.00;60892.56;4870559;28;20267;-88
2021/10/30 02:33:36;;;;;;;1.20;0.80;;;;;;;21.08;100.00;60892.56;4874006;28;20276;-87
2021/10/30 02:36:15;;;;;;;1.33;1.00;;;;;;;-145.06;100.00;60892.56;4867943;28;20066;-86
2021/10/30 02:38:54;;;;;;;1.23;0.90;;;;;;;-145.06;100.00;60892.56;4884998;28;20069;-87
2021/10/30 02:41:33;;;;;;;1.15;0.50;;;;;;;-145.06;100.00;60892.56;4870359;28;20177;-87
2021/10/30 02:44:12;;;;;;;0.63;0.60;;;;;;;15.23;100.00;60892.56;4874740;28;20025;-88
2021/10/30 02:46:51;;;;;;;0.80;0.50;;;;;;;-145.06;100.00;60892.56;4872109;28;20053;-88
2021/10/30 02:49:31;;;;;;;1.67;0.90;;;;;;;-145.06;100.00;60892.56;4871284;28;20267;-88
2021/10/30 02:52:10;;;;;;;1.73;0.65;;;;;;;-145.06;100.00;60892.56;4870721;28;20033;-88
2021/10/30 02:54:49;;;;;;;1.33;0.70;;;;;;;-145.06;100.00;60892.56;4887368;28;20020;-88
2021/10/30 02:57:28;;;;;;;0.90;0.70;;;;;;;-145.06;100.00;60892.56;4876007;28;20363;-88
2021/10/30 03:00:08;;;;;;;0.67;0.67;;;;;;;-145.06;100.00;60892.56;4874563;28;20332;-88
2021/10/30 03:02:47;;;;;;;0.98;0.60;;;;;;;-145.06;100.00;60892.56;4859332;28;20268;-87
2021/10/30 03:05:26;;;;;;;1.00;0.68;;;;;;;-145.06;100.00;60892.56;4855417;28;20029;-88
2021/10/30 03:08:05;;;;;;;1.03;0.93;;;;;;;-145.06;100.00;60892.56;4874164;28;20108;-87
2021/10/30 03:10:44;;;;;;;0.80;0.60;;;;;;;-145.06;100.00;60892.56;4871950;28;20407;-89
2021/10/30 03:13:23;;;;;;;1.30;0.83;;;;;;;187.52;100.00;60892.56;4862410;28;20036;-89
2021/10/30 03:16:02;;;;;;;0.50;0.50;;;;;;;-145.06;100.00;60892.56;4871718;28;20037;-88
2021/10/30 03:18:42;;;;;;;1.23;0.70;;;;;;;-145.06;100.00;60892.56;4874884;28;20120;-87
2021/10/30 03:21:21;;;;;;;1.17;0.70;;;;;;;-145.06;100.00;60892.56;4869716;28;20514;-88
2021/10/30 03:24:00;;;;;;;;;;;;;;;-145.06;100.00;60892.56;4857111;28;20033;-88
2021/10/30 03:26:39;;;;;;;0.87;0.60;;;;;;;-145.06;100.00;60892.56;4868849;28;19912;-88
2021/10/30 03:29:18;;;;;;;0.87;0.70;;;;;;;-145.06;100.00;60892.56;4869088;28;20283;-89
2021/10/30 03:31:57;;;;;;;1.23;0.80;;;;;;;-145.06;100.00;60892.56;4867344;28;20025;-88
2021/10/30 03:34:36;;;;;;;1.73;0.90;;;;;;;-145.06;100.00;60892.56;4874311;28;20112;-88
2021/10/30 03:37:15;;;;;;;0.68;0.52;;;;;;;-145.06;100.00;60892.56;4879385;28;20260;-89
2021/10/30 03:39:54;;;;;;;1.35;0.82;;;;;;;-145.06;100.00;60892.56;4873060;28;20040;-87
2021/10/30 03:42:34;;;;;;;1.10;0.80;;;;;;;-145.06;100.00;60892.56;4868416;28;20025;-88
2021/10/30 03:45:13;;;;;;;1.27;1.00;;;;;;;-145.06;100.00;60892.56;4867482;28;20271;-88
2021/10/30 03:47:52;;;;;;;1.70;1.05;;;;;;;-145.06;100.00;60892.56;4875179;28;20197;-89
2021/10/30 03:50:31;;;;;;;1.55;0.90;;;;;;;-145.06;100.00;60892.56;4856836;28;20034;-88
2021/10/30 03:53:10;;;;;;;0.70;0.57;;;;;;;15.88;100.00;60892.56;4870866;28;20025;-88
2021/10/30 03:55:49;;;;;;;0.83;0.67;;;;;;;15.03;100.00;60892.56;4865017;28;20033;-89
2021/10/30 03:58:29;;;;;;;0.85;0.63;;;;;;;-145.06;100.00;60892.56;4854791;28;20256;-88
2021/10/30 04:01:07;;;;;;;1.70;0.95;;;;;;;-145.06;100.00;60892.56;4873712;28;20045;-89
2021/10/30 04:03:47;;;;;;;0.88;0.68;;;;;;;187.52;100.00;60892.56;4869575;28;20029;-87
2021/10/30 04:06:26;;;;;;;0.90;0.63;;;;;;;15.06;100.00;60892.56;4862723;28;20028;-87
2021/10/30 04:09:05;;;;;;;1.42;1.00;;;;;;;-145.06;100.00;60892.56;4873288;28;20032;-89
2021/10/30 04:11:45;;;;;;;1.20;0.85;;;;;;;-145.06;100.00;60892.56;4882517;28;20033;-87
2021/10/30 04:14:24;;;;;;;1.15;0.80;;;;;;;-145.06;100.00;60892.56;4855799;28;20356;-88
2021/10/30 04:17:04;;;;;;;1.85;0.85;;;;;;;-145.06;100.00;60892.56;4853603;28;20459;-88
2021/10/30 04:19:43;;;;;;;1.23;0.70;;;;;;;-145.06;100.00;60892.56;4865219;28;20033;-88
2021/10/30 04:22:22;;;;;;;1.00;0.70;;;;;;;-145.06;100.00;60892.56;4870288;28;20048;-88
2021/10/30 04:25:01;;;;;;;1.43;0.70;;;;;;;-145.06;100.00;60892.56;4873319;28;20068;-88
2021/10/30 04:27:40;;;;;;;0.77;0.67;;;;;;;-145.06;100.00;60892.56;4887936;28;20319;-88
2021/10/30 04:30:19;;;;;;;1.48;0.75;;;;;;;-145.06;100.00;60892.56;4860289;28;20024;-88
2021/10/30 04:32:58;;;;;;;0.82;0.60;;;;;;;-145.06;100.00;60892.56;4873569;28;20443;-88
2021/10/30 04:35:39;;;;;;;1.02;0.82;;;;;;;-145.06;100.00;60892.56;4861806;28;20033;-88
2021/10/30 04:38:18;;;;;;;0.70;0.60;;;;;;;-145.06;100.00;60892.56;4869280;28;20033;-88
2021/10/30 04:40:57;;;;;;;0.65;0.65;;;;;;;-145.06;100.00;60892.56;4876900;28;20021;-89
2021/10/30 04:43:36;;;;;;;0.90;0.70;;;;;;;-145.06;100.00;60892.56;4867965;28;20048;-89
2021/10/30 04:46:18;;;;;;;0.63;0.50;;;;;;;-145.06;100.00;60892.56;4867736;28;20033;-88
2021/10/30 04:48:58;;;;;;;0.90;0.70;;;;;;;-145.06;100.00;60892.56;4873665;28;20052;-89
2021/10/30 04:51:37;;;;;;;0.90;0.70;;;;;;;-145.06;100.00;60892.56;4871274;28;20120;-89
2021/10/30 04:54:16;;;;;;;0.90;0.80;;;;;;;-145.06;100.00;60892.56;4872722;28;20069;-87
2021/10/30 04:56:55;;;;;;;0.70;0.70;;;;;;;-145.06;100.00;60892.56;4865033;28;20135;-88
2021/10/30 04:59:34;;;;;;;0.80;0.70;;;;;;;-145.06;100.00;60892.56;4861788;28;20313;-89
2021/10/30 05:02:13;;;;;;;1.50;0.90;;;;;;;-145.06;100.00;60892.56;4859751;28;20117;-89
2021/10/30 05:04:52;;;;;;;0.70;0.60;;;;;;;-145.06;100.00;60892.56;4857838;28;20034;-89
2021/10/30 05:07:31;;;;;;;0.50;0.50;;;;;;;-145.06;100.00;60892.56;4864758;28;20355;-87
2021/10/30 05:10:10;;;;;;;0.82;0.60;;;;;;;-145.06;100.00;60892.56;4863456;28;20029;-89
2021/10/30 05:12:49;;;;;;;0.83;0.70;;;;;;;-145.06;100.00;60892.56;4861160;28;20057;-88
2021/10/30 05:15:28;;;;;;;2.83;0.67;;;;;;;-145.06;100.00;60892.56;4856194;28;20275;-88
2021/10/30 05:18:07;;;;;;;0.87;0.70;;;;;;;-145.06;100.00;60892.56;4858978;28;20033;-88
2021/10/30 05:20:46;;;;;;;0.93;0.60;;;;;;;-145.06;100.00;60892.56;4863441;28;20028;-88
2021/10/30 05:23:24;;;;;;;1.00;0.70;;;;;;;-145.06;100.00;60892.56;4866373;28;20399;-88
2021/10/30 05:26:04;;;;;;;1.23;0.63;;;;;;;-145.06;100.00;60892.56;4867582;28;20314;-88
2021/10/30 05:28:44;;;;;;;0.40;0.40;;;;;;;-145.06;100.00;60892.56;4867522;28;20104;-89
2021/10/30 05:31:23;;;;;;;1.52;0.70;;;;;;;-145.06;100.00;60892.56;4874126;28;20029;-88
2021/10/30 05:34:02;;;;;;;0.80;0.53;;;;;;;-145.06;100.00;60892.56;4874353;28;20028;-89
2021/10/30 05:36:41;;;;;;;0.80;0.70;;;;;;;-145.06;100.00;60892.56;4867730;28;20578;-88
2021/10/30 05:39:21;;;;;;;1.13;0.75;;;;;;;-145.06;100.00;60892.56;4884245;28;20463;-88
2021/10/30 05:42:01;;;;;;;1.10;0.60;;;;;;;-145.06;100.00;60892.56;4874643;28;20123;-89
2021/10/30 05:44:39;;;;;;;1.23;0.70;;;;;;;-145.06;100.00;60892.56;4866912;28;20463;-88
2021/10/30 05:47:19;;;;;;;1.60;1.00;;;;;;;-145.06;100.00;60892.56;4873976;28;20029;-88
2021/10/30 05:49:58;;;;;;;1.40;0.70;;;;;;;-145.06;100.00;60892.56;4873602;28;20276;-88
2021/10/30 05:52:37;;;;;;;1.10;0.60;;;;;;;-145.06;100.00;60892.56;4869754;28;20029;-88
2021/10/30 05:55:16;;;;;;;1.50;0.80;;;;;;;-145.06;100.00;60892.56;4876516;28;20264;-88
2021/10/30 05:57:55;;;;;;;1.58;0.80;;;;;;;-145.06;100.00;60892.56;4875737;28;20024;-88
2021/10/30 06:00:34;;;;;;;1.27;0.80;;;;;;;-145.06;100.00;60892.56;4868949;28;20229;-88
2021/10/30 06:03:12;;;;;;;1.08;0.82;;;;;;;-145.06;100.00;60892.56;4869852;28;20025;-87
2021/10/30 06:05:51;;;;;;;1.83;0.90;;;;;;;-145.06;100.00;60892.56;4866512;28;20021;-88
2021/10/30 06:08:30;;;;;;;1.30;0.90;;;;;;;-145.06;100.00;60892.56;4864304;28;20026;-87
2021/10/30 06:11:10;;;;;;;1.10;0.80;;;;;;;-145.06;100.00;60892.56;4865617;28;20526;-88
2021/10/30 06:13:49;;;;;;;1.50;0.93;;;;;;;-145.06;100.00;60892.56;4864665;28;20268;-88
2021/10/30 06:16:29;;;;;;;1.13;0.82;;;;;;;-145.06;100.00;60892.56;4871141;28;20025;-88
2021/10/30 06:19:07;;;;;;;1.33;0.98;;;;;;;-145.06;100.00;60892.56;4862556;28;20352;-87
2021/10/30 06:21:46;;;;;;;1.35;1.00;;;;;;;-145.06;100.00;60892.56;4864248;28;20478;-89
2021/10/30 06:24:26;;;;;;;1.20;0.88;;;;;;;-145.06;100.00;60892.56;4876024;28;20037;-89
2021/10/30 06:27:05;;;;;;;2.13;0.95;;;;;;;-145.06;100.00;60892.56;4860097;28;20037;-89
2021/10/30 06:29:44;;;;;;;0.98;0.70;;;;;;;-145.06;100.00;60892.56;4865946;28;20108;-89
2021/10/30 06:32:23;;;;;;;1.15;1.00;;;;;;;-145.06;100.00;60892.56;4860997;28;20470;-89
2021/10/30 06:35:06;;;;;;;1.77;0.70;;;;;;;-145.06;100.00;60892.56;4862586;28;20045;-88
2021/10/30 06:37:45;;;;;;;1.25;0.80;;;;;;;-145.06;100.00;60892.56;4863075;28;20025;-89
2021/10/30 06:40:24;;;;;;;3.25;1.10;;;;;;;-145.06;100.00;60892.56;4871654;28;20285;-90
2021/10/30 06:43:03;;;;;;;1.30;0.90;;;;;;;-145.06;100.00;60892.56;4863091;28;20045;-89
2021/10/30 06:45:42;;;;;;;1.00;0.70;;;;;;;-145.06;100.00;60892.56;4858977;28;20029;-89
2021/10/30 06:48:21;;;;;;;2.15;0.80;;;;;;;-145.06;100.00;60892.56;4873191;28;20025;-89
2021/10/30 06:51:00;;;;;;;1.30;1.00;;;;;;;-145.06;100.00;60892.56;4872393;28;20116;-89
2021/10/30 06:53:39;;;;;;;1.08;0.70;;;;;;;-145.06;100.00;60892.56;4881546;28;20272;-89
2021/10/30 06:56:19;;;;;;;1.52;1.00;;;;;;;-145.06;100.00;60892.56;4865206;28;20460;-89
2021/10/30 06:58:58;;;;;;;1.88;1.05;;;;;;;-145.06;100.00;60892.56;4867980;28;20315;-89
2021/10/30 07:01:37;;;;;;;0.82;0.60;;;;;;;-145.06;100.00;60892.56;4862574;28;20491;-89
2021/10/30 07:04:16;;;;;;;4.05;0.80;;;;;;;-145.06;100.00;60892.56;4862757;28;20045;-89
2021/10/30 07:06:55;;;;;;;1.50;1.10;;;;;;;-145.06;100.00;60892.56;4866919;28;20482;-89
2021/10/30 07:09:34;;;;;;;1.13;0.90;;;;;;;-145.06;100.00;60892.56;4875040;28;20263;-89
2021/10/30 07:12:13;;;;;;;1.00;0.90;;;;;;;-145.06;100.00;60892.56;4877610;28;20048;-89
2021/10/30 07:14:53;;;;;;;1.30;1.00;;;;;;;-145.06;100.00;60892.56;4871223;28;20479;-89
2021/10/30 07:17:32;;;;;;;1.40;0.80;;;;;;;-145.06;100.00;60892.56;4864902;28;20340;-89
2021/10/30 07:20:11;;;;;;;1.10;0.90;;;;;;;-145.06;100.00;60892.56;4866509;28;20059;-90
2021/10/30 07:22:51;;;;;;;1.57;1.00;;;;;;;-145.06;100.00;60892.56;4872077;28;20037;-89
2021/10/30 07:25:30;;;;;;;1.60;1.20;;;;;;;-145.06;100.00;60892.56;4876001;28;20280;-89
2021/10/30 07:28:09;;;;;;;3.83;2.40;;;;;;;-145.06;100.00;60892.56;4870600;28;20546;-90
2021/10/30 07:30:48;;;;;;;5.47;4.20;;;;;;;-145.06;100.00;60892.56;4868134;28;20041;-90
2021/10/30 07:33:27;;;;;;;5.80;4.33;;;;;;;-145.06;100.00;60892.56;4859482;28;20037;-89
2021/10/30 07:36:06;;;;;;;18.33;9.77;;;;;;;-145.06;100.00;60892.56;4870104;28;20033;-89
2021/10/30 07:38:45;;;;;;;15.37;9.07;;;;;;;-145.06;100.00;60892.56;4873484;28;20044;-88
2021/10/30 07:41:23;;;;;;;10.13;6.07;;;;;;;-145.06;100.00;60892.56;4871146;28;20462;-88
2021/10/30 07:44:03;;;;;;;7.88;4.65;;;;;;;-145.06;100.00;60892.56;4856330;28;20025;-89
2021/10/30 07:46:43;;;;;;;5.57;3.60;;;;;;;-145.06;100.00;60892.56;4872182;28;20044;-89
2021/10/30 07:49:22;;;;;;;5.90;2.60;;;;;;;-145.06;100.00;60892.56;4869562;28;20276;-89
2021/10/30 07:52:03;;;;;;;5.28;3.65;;;;;;;-145.06;100.00;60892.56;4867118;28;20030;-89
2021/10/30 07:54:42;;;;;;;4.15;2.75;;;;;;;-145.06;100.00;60892.56;4858725;28;20033;-88
2021/10/30 07:57:22;;;;;;;2.95;2.10;;;;;;;-145.06;100.00;60892.56;4864132;28;20314;-89
2021/10/30 08:00:01;;;;;;;2.38;1.33;;;;;;;-145.06;100.00;60892.56;4864261;28;20403;-89
2021/10/30 08:02:41;;;;;;;1.83;1.23;;;;;;;-145.06;100.00;60892.56;4865061;28;20025;-88
2021/10/30 08:05:20;;;;;;;1.73;1.10;;;;;;;-145.06;100.00;60892.56;4866036;28;20033;-88
2021/10/30 08:07:59;;;;;;;1.20;0.80;;;;;;;-145.06;100.00;60892.56;4864988;28;20551;-88
2021/10/30 08:10:38;;;;;;;1.60;0.77;;;;;;;-145.06;100.00;60892.56;4860935;28;20032;-89
2021/10/30 08:13:17;;;;;;;1.00;0.75;;;;;;;-145.06;100.00;60892.56;4867826;28;20020;-89
2021/10/30 08:15:56;;;;;;;1.27;0.88;;;;;;;-145.06;100.00;60892.56;4864963;28;20029;-88
2021/10/30 08:18:35;;;;;;;1.02;0.70;;;;;;;-145.06;100.00;60892.56;4865604;28;20432;-88
2021/10/30 08:21:14;;;;;;;0.73;0.60;;;;;;;-145.06;100.00;60892.56;4864138;28;20032;-89
2021/10/30 08:23:54;;;;;;;0.90;0.80;;;;;;;-145.06;100.00;60892.56;4865698;28;20263;-88
2021/10/30 08:26:34;;;;;;;1.52;0.77;;;;;;;-145.06;100.00;60892.56;4867121;28;20283;-88
2021/10/30 08:29:14;;;;;;;1.20;0.90;;;;;;;-145.06;100.00;60892.56;4877586;28;20475;-89
2021/10/30 08:31:53;;;;;;;1.07;0.80;;;;;;;-145.06;100.00;60892.56;4871303;28;20032;-88
2021/10/30 08:34:32;;;;;;;1.48;0.93;;;;;;;-145.06;100.00;60892.56;4862627;28;20260;-89
2021/10/30 08:37:11;;;;;;;1.25;0.95;;;;;;;-145.06;100.00;60892.56;4854644;28;20029;-89
2021/10/30 08:39:50;;;;;;;1.87;0.90;;;;;;;-145.06;100.00;60892.56;4858791;28;20033;-89
2021/10/30 08:42:31;;;;;;;2.03;1.00;;;;;;;-145.06;100.00;60892.56;4862834;28;20260;-89
2021/10/30 08:45:10;;;;;;;1.38;0.90;;;;;;;-145.06;100.00;60892.56;4860698;28;20502;-89
2021/10/30 08:47:49;;;;;;;1.00;0.88;;;;;;;-145.06;100.00;60892.56;4860988;28;20029;-89
2021/10/30 08:50:28;;;;;;;1.17;0.70;;;;;;;-145.06;100.00;60892.56;4861865;28;20029;-89
2021/10/30 08:53:08;;;;;;;1.08;0.70;;;;;;;-145.06;100.00;60892.56;4857835;28;20332;-89
2021/10/30 08:55:51;;;;;;;0.60;0.60;;;;;;;-145.06;100.00;60892.56;4861906;28;20518;-89
2021/10/30 08:58:31;;;;;;;0.60;0.60;;;;;;;-145.06;100.00;60892.56;4882651;28;20021;-88
2021/10/30 09:01:10;;;;;;;1.20;0.63;;;;;;;-145.06;100.00;60892.56;4856378;28;20347;-89
2021/10/30 09:04:01;;;;;;;1.35;0.70;;;;;;;-145.06;100.00;60892.56;4859773;28;20041;-89
2021/10/30 09:06:56;;;;;;;1.05;0.85;;;;;;;-145.06;100.00;60892.56;4856125;28;20029;-88
2021/10/30 09:09:37;;;;;;;1.15;0.80;;;;;;;-145.06;100.00;60892.56;4860604;28;20036;-89
2021/10/30 09:12:23;;;;;;;0.35;0.35;;;;;;;-145.06;100.00;60892.56;4866139;28;20033;-89
2021/10/30 09:15:02;;;;;;;0.75;0.60;;;;;;;-145.06;100.00;60892.56;4861634;28;20380;-88
2021/10/30 09:17:42;;;;;;;0.65;0.55;;;;;;;-145.06;100.00;60892.56;4865139;28;20759;-88
2021/10/30 09:20:29;;;;;;;0.70;0.50;;;;;;;-145.06;100.00;60892.56;4865840;28;20029;-88
2021/10/30 09:23:09;;;;;;;1.13;0.80;;;;;;;-145.06;100.00;60892.56;4864012;28;20029;-89
2021/10/30 09:25:54;;;;;;;0.75;0.70;;;;;;;-145.06;100.00;60892.56;4866603;28;20036;-88
2021/10/30 09:28:38;;;;;;;0.85;0.60;;;;;;;-145.06;100.00;60892.56;4864543;28;20541;-90
2021/10/30 09:31:18;;;;;;;2.88;0.52;;;;;;;-145.06;100.00;60892.56;4865387;28;20037;-89
2021/10/30 09:34:01;;;;;;;0.98;0.75;;;;;;;-145.06;100.00;60892.56;4861976;28;20029;-89
2021/10/30 09:36:43;;;;;;;1.02;0.75;;;;;;;-145.06;100.00;60892.56;4863085;28;20392;-89
2021/10/30 09:39:22;;;;;;;1.17;0.90;;;;;;;-145.06;100.00;60892.56;4863940;28;20033;-89
2021/10/30 09:42:01;;;;;;;0.73;0.68;;;;;;;-145.06;100.00;60892.56;4861123;28;20363;-88
2021/10/30 09:44:40;;;;;;;0.47;0.47;;;;;;;-145.06;100.00;60892.56;4861606;28;20467;-89
2021/10/30 09:47:23;;;;;;;1.10;0.68;;;;;;;-145.06;100.00;60892.56;4860740;28;20283;-88
2021/10/30 09:50:21;;;;;;;0.73;0.50;;;;;;;-145.06;100.00;60892.56;4862981;28;20049;-89
2021/10/30 09:53:25;;;;;;;0.85;0.55;;;;;;;-145.06;100.00;60892.56;4860176;28;20033;-89
2021/10/30 09:56:11;;;;;;;1.45;0.70;;;;;;;-145.06;100.00;60892.56;4859153;28;20025;-90
2021/10/30 09:58:50;;;;;;;0.73;0.52;;;;;;;-145.06;100.00;60892.56;4860978;28;20056;-89
2021/10/30 10:01:29;;;;;;;1.23;0.68;;;;;;;-145.06;100.00;60892.56;4860844;28;20607;-89
2021/10/30 10:04:10;;;;;;;0.45;0.40;;;;;;;-145.06;100.00;60892.56;4864856;28;20287;-89
2021/10/30 10:06:50;;;;;;;0.98;0.70;;;;;;;-145.06;100.00;60892.56;4855677;28;20025;-89
2021/10/30 10:09:29;;;;;;;0.50;0.47;;;;;;;-145.06;100.00;60892.56;4862352;28;20037;-89
2021/10/30 10:12:12;;;;;;;0.43;0.40;;;;;;;-145.06;100.00;60892.56;4862060;28;20119;-89
2021/10/30 10:14:51;;;;;;;0.60;0.60;;;;;;;-145.06;100.00;60892.56;4860969;28;20036;-89
2021/10/30 10:17:32;;;;;;;0.68;0.60;;;;;;;-145.06;100.00;60892.56;4862417;28;20033;-89
2021/10/30 10:20:12;;;;;;;3.05;0.75;;;;;;;-145.06;100.00;60892.56;4862364;28;20466;-89
2021/10/30 10:22:51;;;;;;;0.45;0.40;;;;;;;-145.06;100.00;60892.56;4860409;28;20025;-89
2021/10/30 10:25:32;;;;;;;0.93;0.60;;;;;;;-145.06;100.00;60892.56;4859822;28;20060;-89
2021/10/30 10:28:18;;;;;;;0.70;0.60;;;;;;;-145.06;100.00;60892.56;4859125;28;20341;-89
2021/10/30 10:31:11;;;;;;;1.00;0.65;;;;;;;-145.06;100.00;60892.56;4860596;28;20466;-88
2021/10/30 10:34:21;;;;;;;1.48;0.60;;;;;;;-145.06;100.00;60892.56;4861909;28;20029;-89
2021/10/30 10:37:12;;;;;;;0.73;0.52;;;;;;;-145.06;100.00;60892.56;4863621;28;20104;-89
2021/10/30 10:39:54;;;;;;;0.80;0.55;;;;;;;-145.06;100.00;60892.56;4868189;28;20041;-89
2021/10/30 10:42:36;;;;;;;1.23;0.60;;;;;;;-145.06;100.00;60892.56;4866615;28;20405;-89
2021/10/30 10:45:16;;;;;;;0.50;0.45;;;;;;;-145.06;100.00;60892.56;4859516;28;20025;-89
2021/10/30 10:48:00;;;;;;;0.52;0.50;;;;;;;-145.06;100.00;60892.56;4860977;28;20474;-89
2021/10/30 10:50:42;;;;;;;0.70;0.60;;;;;;;-145.06;100.00;60892.56;4861118;28;20068;-89
2021/10/30 10:53:23;;;;;;;1.25;0.60;;;;;;;-145.06;100.00;60892.56;4859900;28;20067;-89
2021/10/30 10:56:02;;;;;;;0.85;0.50;;;;;;;-145.06;100.00;60892.56;4852848;28;20029;-89
2021/10/30 10:59:04;;;;;;;1.30;0.70;;;;;;;-145.06;100.00;60892.56;4858479;28;20160;-89
2021/10/30 11:02:16;;;;;;;1.10;0.77;;;;;;;-145.06;100.00;60892.56;4861655;28;20553;-89
2021/10/30 11:05:08;;;;;;;1.45;0.80;;;;;;;-145.06;100.00;60892.56;4859758;28;20479;-90
2021/10/30 11:07:50;;;;;;;0.80;0.65;;;;;;;-145.06;100.00;60892.56;4861574;28;20029;-89
2021/10/30 11:10:35;;;;;;;2.33;0.80;;;;;;;-145.06;100.00;60892.56;4879053;28;20033;-89
2021/10/30 11:13:20;;;;;;;1.02;0.70;;;;;;;-145.06;100.00;60892.56;4861520;28;20029;-89
2021/10/30 11:16:03;;;;;;;1.92;0.90;;;;;;;-145.06;100.00;60892.56;4861439;28;20033;-88
2021/10/30 11:21:23;;;;;;;1.60;0.82;;;;;;;-145.06;100.00;60892.56;4862450;28;20029;-90
2021/10/30 11:24:16;;;;;;;1.00;0.70;;;;;;;-145.06;100.00;60892.56;4860542;28;20033;-89
2021/10/30 11:27:05;;;;;;;0.68;0.65;;;;;;;-145.06;100.00;60892.56;4863961;28;20025;-89
2021/10/30 11:29:49;;;;;;;1.00;0.80;;;;;;;-145.06;100.00;60892.56;4863593;28;20359;-89
2021/10/30 11:32:34;;;;;;;0.95;0.70;;;;;;;-145.06;100.00;60892.56;4872815;28;20422;-90
2021/10/30 11:35:14;;;;;;;0.80;0.60;;;;;;;-145.06;100.00;60892.56;4860729;28;20037;-88
2021/10/30 11:37:53;;;;;;;1.08;0.80;;;;;;;-145.06;100.00;60892.56;4860568;28;20029;-89
2021/10/30 11:40:51;;;;;;;0.68;0.50;;;;;;;-145.06;100.00;60892.56;4861433;28;20361;-89
2021/10/30 11:43:33;;;;;;;0.73;0.60;;;;;;;-145.06;100.00;60892.56;4857288;28;20029;-89
2021/10/30 11:46:15;;;;;;;1.27;0.73;;;;;;;-145.06;100.00;60892.56;4862232;28;20025;-90
2021/10/30 11:48:57;;;;;;;0.80;0.63;;;;;;;-145.06;100.00;60892.56;4859351;28;20409;-89
2021/10/30 11:51:40;;;;;;;1.65;0.80;;;;;;;-145.06;100.00;60892.56;4854324;28;20060;-89
2021/10/30 11:54:21;;;;;;;0.75;0.60;;;;;;;-145.06;100.00;60892.56;4863406;28;20428;-89
2021/10/30 11:57:03;;;;;;;2.13;0.63;;;;;;;-145.06;100.00;60892.56;4857625;28;20033;-88
2021/10/30 11:59:43;;;;;;;0.70;0.60;;;;;;;-145.06;100.00;60892.56;4860708;28;22211;-89
2021/10/30 12:02:22;;;;;;;1.17;0.90;;;;;;;-145.06;100.00;60892.56;4855601;28;20244;-89
2021/10/30 12:05:13;;;;;;;0.80;0.50;;;;;;;-145.06;100.00;60892.56;4856143;28;20556;-89
2021/10/30 12:07:52;;;;;;;1.08;0.75;;;;;;;-145.06;100.00;60892.56;4860310;28;20355;-88
2021/10/30 12:10:31;;;;;;;0.80;0.50;;;;;;;-145.06;100.00;60892.56;4856943;28;20041;-88
2021/10/30 12:13:10;;;;;;;1.40;0.80;;;;;;;-145.06;100.00;60892.56;4853178;28;20045;-88